createdAt,value
2022-10-29T00:02:22.064Z,22.98
2022-10-29T00:04:49.355Z,22.13
2022-10-29T00:07:16.724Z,26.63
2022-10-29T00:09:43.955Z,20.25
2022-10-29T00:12:11.188Z,24.40
2022-10-29T00:14:38.505Z,21.92
2022-10-29T00:17:05.937Z,23.67
2022-10-29T00:19:33.184Z,23.73
2022-10-29T00:22:02.644Z,23.00
2022-10-29T00:24:29.893Z,23.30
2022-10-29T00:26:57.152Z,23.65
2022-10-29T00:29:24.525Z,22.73
2022-10-29T00:31:51.979Z,22.13
2022-10-29T00:34:19.260Z,21.75
2022-10-29T00:36:46.504Z,23.58
2022-10-29T00:39:17.153Z,25.85
2022-10-29T00:41:44.614Z,26.35
2022-10-29T00:44:20.840Z,22.30
2022-10-29T00:46:49.296Z,22.77
2022-10-29T00:49:17.315Z,25.63
2022-10-29T00:51:46.218Z,19.50
2022-10-29T00:54:14.768Z,22.98
2022-10-29T00:56:58.272Z,21.92
2022-10-29T00:59:26.077Z,20.10
2022-10-29T01:01:55.981Z,21.02
2022-10-29T01:04:23.982Z,17.60
2022-10-29T01:06:51.492Z,19.05
2022-10-29T01:09:18.778Z,20.05
2022-10-29T01:12:12.014Z,17.40
2022-10-29T01:14:39.219Z,17.42
2022-10-29T01:17:24.813Z,19.00
2022-10-29T01:20:10.826Z,17.75
2022-10-29T01:22:44.851Z,18.10
2022-10-29T01:25:30.665Z,16.92
2022-10-29T01:28:04.202Z,19.20
2022-10-29T01:30:43.349Z,16.20
2022-10-29T01:33:17.922Z,17.30
2022-10-29T01:35:52.471Z,19.33
2022-10-29T01:38:22.783Z,21.08
2022-10-29T01:40:59.210Z,20.80
2022-10-29T01:43:34.145Z,19.83
2022-10-29T01:46:21.646Z,21.15
2022-10-29T01:48:49.800Z,20.75
2022-10-29T01:51:19.956Z,26.45
2022-10-29T01:53:47.335Z,25.25
2022-10-29T01:56:14.559Z,23.75
2022-10-29T01:58:47.098Z,23.17
2022-10-29T02:01:33.327Z,26.40
2022-10-29T02:04:27.102Z,25.58
2022-10-29T02:07:08.965Z,24.15
2022-10-29T02:09:45.810Z,25.23
2022-10-29T02:12:25.259Z,27.00
2022-10-29T02:14:54.687Z,31.10
2022-10-29T02:17:21.932Z,25.90
2022-10-29T02:19:49.213Z,28.02
2022-10-29T02:22:16.494Z,30.27
2022-10-29T02:24:43.783Z,24.98
2022-10-29T02:27:11.165Z,29.35
2022-10-29T02:29:38.385Z,26.80
2022-10-29T02:32:05.812Z,27.42
2022-10-29T02:34:33.077Z,29.42
2022-10-29T02:37:00.325Z,28.02
2022-10-29T02:39:27.571Z,25.75
2022-10-29T02:41:54.862Z,28.17
2022-10-29T02:44:22.114Z,28.10
2022-10-29T02:46:49.360Z,25.35
2022-10-29T02:49:16.859Z,27.75
2022-10-29T02:51:44.301Z,25.80
2022-10-29T02:54:11.527Z,25.90
2022-10-29T02:56:38.766Z,25.00
2022-10-29T02:59:09.197Z,25.77
2022-10-29T03:01:39.095Z,25.58
2022-10-29T03:04:06.505Z,28.38
2022-10-29T03:06:33.737Z,29.08
2022-10-29T03:09:01.032Z,25.73
2022-10-29T03:11:28.287Z,26.77
2022-10-29T03:13:55.523Z,33.65
2022-10-29T03:16:22.813Z,30.13
2022-10-29T03:18:50.030Z,29.23
2022-10-29T03:21:17.271Z,28.42
2022-10-29T03:23:44.534Z,26.67
2022-10-29T03:26:11.879Z,30.75
2022-10-29T03:28:39.249Z,30.13
2022-10-29T03:31:06.606Z,34.15
2022-10-29T03:33:33.850Z,32.63
2022-10-29T03:36:02.081Z,30.58
2022-10-29T03:38:29.367Z,32.72
2022-10-29T03:40:56.589Z,30.45
2022-10-29T03:43:24.143Z,32.50
2022-10-29T03:45:58.476Z,31.25
2022-10-29T03:48:26.136Z,30.27
2022-10-29T03:50:57.617Z,30.92
2022-10-29T03:53:25.458Z,37.50
2022-10-29T03:55:56.768Z,31.83
2022-10-29T03:58:24.326Z,28.77
2022-10-29T04:01:10.224Z,29.80
2022-10-29T04:03:39.139Z,28.88
2022-10-29T04:06:11.273Z,28.85
2022-10-29T04:08:38.804Z,33.42
2022-10-29T04:11:06.349Z,29.00
2022-10-29T04:13:33.611Z,31.80
2022-10-29T04:16:00.819Z,28.02
2022-10-29T04:18:28.139Z,29.08
2022-10-29T04:29:17.317Z,27.23
2022-10-29T04:31:44.557Z,27.20
2022-10-29T04:34:11.782Z,24.50
2022-10-29T04:36:39.040Z,27.10
2022-10-29T04:39:06.400Z,28.25
2022-10-29T04:41:33.712Z,26.48
2022-10-29T04:44:01.004Z,25.85
2022-10-29T04:46:28.327Z,24.90
2022-10-29T04:48:55.797Z,27.95
2022-10-29T04:51:24.457Z,26.20
2022-10-29T04:53:51.726Z,24.17
2022-10-29T04:56:19.115Z,23.45
2022-10-29T04:58:46.435Z,27.17
2022-10-29T05:01:13.935Z,26.80
2022-10-29T05:03:41.325Z,28.20
2022-10-29T05:06:08.742Z,23.30
2022-10-29T05:08:36.015Z,27.58
2022-10-29T05:11:04.761Z,21.33
2022-10-29T05:13:32.168Z,23.60
2022-10-29T05:15:59.709Z,22.38
2022-10-29T05:18:27.064Z,22.85
2022-10-29T05:20:57.947Z,22.02
2022-10-29T05:23:25.344Z,23.08
2022-10-29T05:25:52.847Z,22.90
2022-10-29T05:28:21.246Z,24.42
2022-10-29T05:30:49.381Z,28.92
2022-10-29T05:33:17.558Z,26.15
2022-10-29T05:35:45.187Z,23.17
2022-10-29T05:38:13.068Z,25.65
2022-10-29T05:40:40.576Z,25.88
2022-10-29T05:43:07.816Z,24.45
2022-10-29T05:45:35.527Z,22.67
2022-10-29T05:48:03.466Z,23.17
2022-10-29T05:50:31.377Z,25.55
2022-10-29T05:53:03.156Z,22.25
2022-10-29T05:55:31.410Z,21.98
2022-10-29T05:58:03.607Z,27.58
2022-10-29T06:00:32.424Z,27.65
2022-10-29T06:03:00.050Z,27.98
2022-10-29T06:05:27.951Z,30.95
2022-10-29T06:07:59.375Z,30.30
2022-10-29T06:10:28.004Z,28.77
2022-10-29T06:12:55.322Z,34.30
2022-10-29T06:15:23.202Z,27.67
2022-10-29T06:17:50.437Z,35.00
2022-10-29T06:20:18.935Z,31.77
2022-10-29T06:22:46.170Z,37.92
2022-10-29T06:25:13.396Z,35.42
2022-10-29T06:27:40.664Z,37.35
2022-10-29T06:30:08.343Z,36.95
2022-10-29T06:32:35.598Z,34.35
2022-10-29T06:35:02.915Z,37.60
2022-10-29T06:37:33.299Z,41.75
2022-10-29T06:40:00.545Z,40.35
2022-10-29T06:42:27.784Z,47.55
2022-10-29T06:44:55.034Z,40.58
2022-10-29T06:47:22.278Z,41.38
2022-10-29T06:49:49.539Z,49.92
2022-10-29T06:52:16.766Z,48.83
2022-10-29T06:54:44.003Z,50.83
2022-10-29T06:57:11.324Z,46.67
2022-10-29T06:59:38.559Z,48.67
2022-10-29T07:02:05.921Z,55.35
2022-10-29T07:04:33.180Z,61.22
2022-10-29T07:07:00.416Z,54.67
2022-10-29T07:09:27.652Z,66.10
2022-10-29T07:11:57.089Z,62.95
2022-10-29T07:14:24.633Z,63.10
2022-10-29T07:16:51.910Z,57.38
2022-10-29T07:19:19.160Z,60.85
2022-10-29T07:21:46.391Z,67.63
2022-10-29T07:24:13.636Z,68.35
2022-10-29T07:26:40.903Z,65.50
2022-10-29T07:29:08.157Z,69.53
2022-10-29T07:31:35.585Z,70.05
2022-10-29T07:34:02.851Z,80.60
2022-10-29T07:36:32.861Z,86.22
2022-10-29T07:39:00.991Z,87.75
2022-10-29T07:41:28.223Z,85.82
2022-10-29T07:43:55.463Z,78.78
2022-10-29T07:46:22.693Z,71.82
2022-10-29T07:48:50.067Z,66.90
2022-10-29T07:51:17.311Z,61.80
2022-10-29T07:53:44.565Z,61.28
2022-10-29T07:56:11.820Z,62.65
2022-10-29T07:58:39.094Z,58.53
2022-10-29T08:01:06.518Z,56.55
2022-10-29T08:03:33.825Z,54.42
2022-10-29T08:06:01.127Z,52.53
2022-10-29T08:08:28.355Z,51.90
2022-10-29T08:11:00.282Z,54.67
2022-10-29T08:13:27.579Z,53.22
2022-10-29T08:15:54.863Z,58.05
2022-10-29T08:18:22.179Z,43.72
2022-10-29T08:20:49.497Z,52.30
2022-10-29T08:23:16.830Z,55.80
2022-10-29T08:25:44.149Z,56.80
2022-10-29T08:28:13.148Z,56.80
2022-10-29T08:30:41.086Z,57.10
2022-10-29T08:33:08.539Z,58.78
2022-10-29T08:35:35.847Z,59.05
2022-10-29T08:38:03.132Z,52.58
2022-10-29T08:40:39.563Z,64.57
2022-10-29T08:43:25.267Z,61.03
2022-10-29T08:45:53.523Z,64.55
2022-10-29T08:48:36.038Z,67.22
2022-10-29T08:51:14.389Z,57.15
2022-10-29T08:53:45.379Z,67.88
2022-10-29T08:56:26.477Z,63.85
2022-10-29T08:59:17.116Z,74.90
2022-10-29T09:01:44.774Z,79.28
2022-10-29T09:04:23.124Z,74.07
2022-10-29T09:06:59.333Z,72.03
2022-10-29T09:09:39.134Z,72.55
2022-10-29T09:12:06.364Z,74.30
2022-10-29T09:14:52.237Z,71.38
2022-10-29T09:17:37.632Z,70.07
2022-10-29T09:20:24.374Z,75.10
2022-10-29T09:22:57.217Z,71.78
2022-10-29T09:25:36.846Z,67.35
2022-10-29T09:28:04.096Z,73.75
2022-10-29T09:30:32.046Z,68.05
2022-10-29T09:33:07.495Z,70.20
2022-10-29T09:35:38.157Z,69.13
2022-10-29T09:38:19.902Z,70.20
2022-10-29T09:40:47.595Z,70.32
2022-10-29T09:43:32.167Z,69.97
2022-10-29T09:46:13.018Z,65.47
2022-10-29T09:48:40.223Z,59.65
2022-10-29T09:51:26.150Z,60.08
2022-10-29T09:53:53.687Z,59.92
2022-10-29T09:56:21.119Z,57.10
2022-10-29T09:58:52.824Z,51.85
2022-10-29T10:01:20.167Z,47.60
2022-10-29T10:03:49.538Z,49.22
2022-10-29T10:06:17.520Z,52.38
2022-10-29T10:08:56.981Z,49.90
2022-10-29T10:11:24.291Z,46.15
2022-10-29T10:13:58.286Z,41.53
2022-10-29T10:16:29.424Z,40.67
2022-10-29T10:21:31.276Z,35.88
2022-10-29T10:23:59.132Z,40.15
2022-10-29T10:26:29.248Z,38.30
2022-10-29T10:29:05.825Z,32.58
2022-10-29T10:31:33.218Z,34.88
2022-10-29T10:34:08.545Z,39.03
2022-10-29T10:36:39.791Z,34.13
2022-10-29T10:41:36.114Z,38.15
2022-10-29T10:44:05.105Z,38.65
2022-10-29T10:46:38.190Z,36.40
2022-10-29T10:49:05.417Z,33.50
2022-10-29T10:51:36.976Z,37.35
2022-10-29T10:54:24.502Z,35.55
2022-10-29T10:57:05.632Z,35.72
2022-10-29T10:59:43.585Z,33.05
2022-10-29T11:02:37.095Z,40.78
2022-10-29T11:05:17.701Z,36.85
2022-10-29T11:08:17.419Z,33.55
2022-10-29T11:10:49.911Z,31.38
2022-10-29T11:13:19.174Z,35.20
2022-10-29T11:15:51.276Z,37.60
2022-10-29T11:18:18.670Z,40.28
2022-10-29T11:20:49.041Z,36.22
2022-10-29T11:23:34.363Z,38.00
2022-10-29T11:26:08.319Z,41.60
2022-10-29T11:28:39.807Z,37.83
2022-10-29T11:31:23.047Z,41.97
2022-10-29T11:33:57.812Z,39.42
2022-10-29T11:36:27.107Z,39.53
2022-10-29T11:39:12.997Z,40.22
2022-10-29T11:41:53.039Z,36.10
2022-10-29T11:44:21.845Z,40.15
2022-10-29T11:46:55.345Z,37.10
2022-10-29T11:49:31.951Z,37.28
2022-10-29T11:52:09.131Z,33.50
2022-10-29T11:54:54.758Z,33.13
2022-10-29T11:57:30.642Z,30.02
2022-10-29T12:00:13.403Z,31.92
2022-10-29T12:02:53.077Z,27.90
2022-10-29T12:05:25.573Z,28.65
2022-10-29T12:08:11.205Z,28.35
2022-10-29T12:10:50.455Z,27.60
2022-10-29T12:13:20.453Z,26.38
2022-10-29T12:16:06.596Z,24.63
2022-10-29T12:18:52.055Z,26.02
2022-10-29T12:21:27.211Z,23.95
2022-10-29T12:24:13.074Z,23.80
2022-10-29T12:26:55.516Z,19.70
2022-10-29T12:29:27.094Z,20.92
2022-10-29T12:32:09.616Z,18.77
2022-10-29T12:34:48.050Z,16.83
2022-10-29T12:37:34.088Z,17.00
2022-10-29T12:40:03.592Z,14.00
2022-10-29T12:42:31.031Z,13.55
2022-10-29T12:45:01.092Z,16.15
2022-10-29T12:47:38.360Z,14.57
2022-10-29T12:50:26.484Z,10.48
2022-10-29T12:52:58.441Z,11.95
2022-10-29T12:55:26.329Z,14.45
2022-10-29T12:57:53.569Z,11.93
2022-10-29T13:00:27.446Z,10.18
2022-10-29T13:02:56.009Z,9.73
2022-10-29T13:05:26.363Z,9.90
2022-10-29T13:08:00.163Z,8.75
2022-10-29T13:10:33.808Z,8.27
2022-10-29T13:13:01.299Z,8.38
2022-10-29T13:15:33.248Z,6.32
2022-10-29T13:18:04.615Z,8.15
2022-10-29T13:20:42.432Z,6.70
2022-10-29T13:23:24.882Z,8.63
2022-10-29T13:25:53.357Z,7.63
2022-10-29T13:28:20.571Z,7.97
2022-10-29T13:30:49.184Z,7.38
2022-10-29T13:33:28.552Z,9.77
2022-10-29T13:36:02.005Z,8.73
2022-10-29T13:38:57.803Z,8.95
2022-10-29T13:41:42.777Z,10.70
2022-10-29T13:44:10.775Z,9.85
2022-10-29T13:46:42.563Z,5.82
2022-10-29T13:49:13.973Z,10.23
2022-10-29T13:51:43.955Z,6.25
2022-10-29T13:54:24.175Z,7.75
2022-10-29T13:56:57.835Z,10.48
2022-10-29T13:59:36.361Z,9.90
2022-10-29T14:02:06.667Z,10.52
2022-10-29T14:04:39.883Z,10.23
2022-10-29T14:07:12.920Z,11.68
2022-10-29T14:09:47.932Z,11.35
2022-10-29T14:12:18.547Z,10.15
2022-10-29T14:14:52.152Z,9.15
2022-10-29T14:17:19.908Z,7.55
2022-10-29T14:19:48.323Z,6.05
2022-10-29T14:22:33.815Z,5.95
2022-10-29T14:25:02.173Z,7.32
2022-10-29T14:27:30.020Z,9.52
2022-10-29T14:30:19.759Z,11.10
2022-10-29T14:32:47.025Z,7.47
2022-10-29T14:35:17.199Z,5.88
2022-10-29T14:37:45.370Z,7.43
2022-10-29T14:40:20.216Z,7.13
2022-10-29T14:42:55.520Z,5.53
2022-10-29T14:45:28.601Z,10.38
2022-10-29T14:48:00.340Z,5.28
2022-10-29T14:50:28.653Z,5.78
2022-10-29T14:52:57.515Z,8.05
2022-10-29T14:55:32.840Z,6.47
2022-10-29T14:58:02.982Z,7.85
2022-10-29T15:00:31.692Z,8.23
2022-10-29T15:02:59.708Z,7.20
2022-10-29T15:05:28.705Z,8.70
2022-10-29T15:08:34.166Z,8.07
2022-10-29T15:11:01.474Z,8.40
2022-10-29T15:13:29.361Z,9.97
2022-10-29T15:16:01.228Z,6.28
2022-10-29T15:18:29.180Z,8.35
2022-10-29T15:20:56.612Z,8.55
2022-10-29T15:23:34.361Z,8.98
2022-10-29T15:26:03.724Z,13.73
2022-10-29T15:28:32.003Z,7.88
2022-10-29T15:31:02.292Z,15.18
2022-10-29T15:33:30.237Z,8.27
2022-10-29T15:36:01.857Z,13.27
2022-10-29T15:38:34.979Z,9.38
2022-10-29T15:41:17.312Z,7.68
2022-10-29T15:43:50.695Z,7.68
2022-10-29T15:46:28.107Z,8.27
2022-10-29T15:48:55.686Z,10.82
2022-10-29T15:51:26.504Z,9.60
2022-10-29T15:53:55.586Z,8.35
2022-10-29T15:56:22.840Z,9.32
2022-10-29T15:58:50.145Z,11.57
2022-10-29T16:01:17.611Z,11.27
2022-10-29T16:03:45.534Z,10.43
2022-10-29T16:06:13.496Z,6.78
2022-10-29T16:08:49.658Z,7.22
2022-10-29T16:11:22.087Z,7.32
2022-10-29T16:13:54.723Z,7.65
2022-10-29T16:16:23.535Z,8.90
2022-10-29T16:18:51.525Z,8.95
2022-10-29T16:21:25.635Z,8.20
2022-10-29T16:23:53.272Z,8.05
2022-10-29T16:26:22.817Z,10.82
2022-10-29T16:28:52.640Z,9.32
2022-10-29T16:31:21.522Z,8.40
2022-10-29T16:33:49.108Z,9.80
2022-10-29T16:36:16.610Z,9.38
2022-10-29T16:38:44.044Z,9.18
2022-10-29T16:41:15.176Z,12.25
2022-10-29T16:46:10.090Z,13.30
2022-10-29T16:48:37.611Z,9.27
2022-10-29T16:51:05.077Z,9.23
2022-10-29T16:53:32.392Z,11.27
2022-10-29T16:55:59.890Z,8.75
2022-10-29T16:58:27.215Z,8.45
2022-10-29T17:01:07.632Z,7.57
2022-10-29T17:03:35.647Z,10.75
2022-10-29T17:06:04.254Z,12.45
2022-10-29T17:08:32.410Z,9.77
2022-10-29T17:11:00.559Z,10.57
2022-10-29T17:13:28.354Z,10.98
2022-10-29T17:16:00.929Z,8.40
2022-10-29T17:18:28.165Z,10.55
2022-10-29T17:20:59.094Z,12.45
2022-10-29T17:23:26.561Z,11.45
2022-10-29T17:25:57.554Z,9.73
2022-10-29T17:28:25.735Z,7.90
2022-10-29T17:30:53.257Z,10.30
2022-10-29T17:33:20.543Z,10.00
2022-10-29T17:35:48.072Z,12.85
2022-10-29T17:38:15.321Z,8.45
2022-10-29T17:40:44.488Z,10.55
2022-10-29T17:43:11.769Z,13.55
2022-10-29T17:45:39.092Z,13.00
2022-10-29T17:48:07.521Z,12.20
2022-10-29T17:50:34.775Z,9.40
2022-10-29T17:53:02.213Z,14.52
2022-10-29T17:55:29.480Z,10.38
2022-10-29T17:57:56.996Z,11.05
2022-10-29T18:00:24.527Z,10.90
2022-10-29T18:02:52.148Z,12.07
2022-10-29T18:05:19.758Z,12.50
2022-10-29T18:07:47.101Z,10.20
2022-10-29T18:10:14.480Z,13.07
2022-10-29T18:12:41.788Z,14.82
2022-10-29T18:15:09.399Z,11.43
2022-10-29T18:17:36.791Z,16.10
2022-10-29T18:20:04.313Z,11.75
2022-10-29T18:22:31.579Z,15.35
2022-10-29T18:24:58.877Z,11.25
2022-10-29T18:27:26.149Z,16.63
2022-10-29T18:29:53.389Z,12.10
2022-10-29T18:32:20.650Z,8.90
2022-10-29T18:34:47.941Z,14.98
2022-10-29T18:37:15.314Z,10.30
2022-10-29T18:39:42.551Z,14.30
2022-10-29T18:42:12.098Z,12.05
2022-10-29T18:44:39.431Z,12.32
2022-10-29T18:47:08.977Z,11.98
2022-10-29T18:49:36.250Z,17.42
2022-10-29T18:52:03.604Z,10.90
2022-10-29T18:54:30.935Z,11.43
2022-10-29T18:56:58.251Z,12.73
2022-10-29T18:59:25.599Z,9.80
2022-10-29T19:01:52.929Z,11.60
2022-10-29T19:04:20.302Z,14.52
2022-10-29T19:06:47.749Z,11.65
2022-10-29T19:09:15.026Z,10.23
2022-10-29T19:11:42.299Z,15.40
2022-10-29T19:14:12.438Z,14.23
2022-10-29T19:16:39.685Z,9.88
2022-10-29T19:19:08.363Z,14.55
2022-10-29T19:21:36.467Z,9.02
2022-10-29T19:24:03.961Z,9.13
2022-10-29T19:26:33.597Z,11.63
2022-10-29T19:29:01.639Z,13.13
2022-10-29T19:31:30.112Z,14.02
2022-10-29T19:33:59.694Z,16.00
2022-10-29T19:36:28.445Z,20.08
2022-10-29T19:38:58.279Z,12.57
2022-10-29T19:41:25.579Z,12.77
2022-10-29T19:43:53.063Z,14.35
2022-10-29T19:46:25.021Z,10.98
2022-10-29T19:48:53.702Z,18.60
2022-10-29T19:51:21.565Z,15.15
2022-10-29T19:53:49.285Z,12.98
2022-10-29T19:56:16.956Z,12.60
2022-10-29T19:58:44.397Z,14.25
2022-10-29T20:01:13.033Z,11.15
2022-10-29T20:03:40.759Z,10.07
2022-10-29T20:06:09.356Z,14.32
2022-10-29T20:08:37.447Z,13.48
2022-10-29T20:11:04.984Z,17.20
2022-10-29T20:13:32.441Z,7.93
2022-10-29T20:15:59.766Z,12.88
2022-10-29T20:18:27.087Z,10.40
2022-10-29T20:20:57.678Z,14.27
2022-10-29T20:23:27.974Z,11.38
2022-10-29T20:25:55.188Z,12.87
2022-10-29T20:28:22.437Z,15.00
2022-10-29T20:30:49.669Z,13.77
2022-10-29T20:33:16.879Z,11.90
2022-10-29T20:35:44.129Z,16.27
2022-10-29T20:38:11.407Z,11.73
2022-10-29T20:40:38.709Z,12.70
2022-10-29T20:43:08.072Z,11.35
2022-10-29T20:45:35.351Z,14.68
2022-10-29T20:48:03.162Z,11.73
2022-10-29T20:50:30.381Z,11.48
2022-10-29T20:52:57.696Z,14.80
2022-10-29T20:55:24.990Z,13.77
2022-10-29T20:57:52.233Z,12.32
2022-10-29T21:00:19.532Z,12.82
2022-10-29T21:02:46.888Z,12.85
2022-10-29T21:05:14.195Z,13.82
2022-10-29T21:07:41.461Z,13.73
2022-10-29T21:10:09.022Z,13.10
2022-10-29T21:12:36.250Z,10.02
2022-10-29T21:15:03.629Z,10.00
2022-10-29T21:17:30.942Z,16.40
2022-10-29T21:19:58.169Z,13.18
2022-10-29T21:22:25.400Z,14.35
2022-10-29T21:24:52.636Z,14.10
2022-10-29T21:27:19.904Z,11.63
2022-10-29T21:29:47.201Z,11.88
2022-10-29T21:32:16.942Z,10.32
2022-10-29T21:34:44.675Z,13.68
2022-10-29T21:37:11.917Z,11.77
2022-10-29T21:39:39.237Z,10.57
2022-10-29T21:42:06.519Z,9.35
2022-10-29T21:44:33.768Z,15.93
2022-10-29T21:47:01.032Z,18.17
2022-10-29T21:49:28.267Z,11.70
2022-10-29T21:51:55.540Z,9.93
2022-10-29T21:54:24.426Z,10.63
2022-10-29T21:56:54.668Z,13.88
2022-10-29T21:59:22.079Z,10.63
2022-10-29T22:01:49.411Z,16.02
2022-10-29T22:04:16.810Z,14.43
2022-10-29T22:06:44.128Z,17.92
2022-10-29T22:09:11.997Z,7.78
2022-10-29T22:11:39.206Z,13.43
2022-10-29T22:14:06.465Z,12.15
2022-10-29T22:16:34.194Z,10.90
2022-10-29T22:19:01.418Z,11.38
2022-10-29T22:21:28.819Z,7.53
2022-10-29T22:23:57.069Z,10.27
2022-10-29T22:26:25.547Z,13.60
2022-10-29T22:28:52.830Z,10.77
2022-10-29T22:31:21.313Z,11.43
2022-10-29T22:33:48.974Z,10.98
2022-10-29T22:36:17.883Z,10.68
2022-10-29T22:38:45.151Z,14.13
2022-10-29T22:41:13.586Z,16.48
2022-10-29T22:43:41.068Z,11.57
2022-10-29T22:46:09.243Z,9.05
2022-10-29T22:48:36.867Z,16.83
2022-10-29T22:51:08.083Z,10.57
2022-10-29T22:56:03.003Z,8.95
2022-10-29T22:58:30.557Z,10.00
2022-10-29T23:01:24.363Z,15.15
2022-10-29T23:03:51.786Z,9.00
2022-10-29T23:06:20.381Z,10.45
2022-10-29T23:08:48.205Z,10.30
2022-10-29T23:11:22.617Z,12.20
2022-10-29T23:13:50.679Z,11.88
2022-10-29T23:16:18.306Z,13.73
2022-10-29T23:18:50.201Z,15.13
2022-10-29T23:21:17.556Z,12.70
2022-10-29T23:23:45.189Z,12.20
2022-10-29T23:26:14.736Z,8.23
2022-10-29T23:28:42.011Z,13.38
2022-10-29T23:31:14.096Z,10.98
2022-10-29T23:33:48.571Z,9.00
2022-10-29T23:36:16.856Z,15.30
2022-10-29T23:38:44.383Z,10.50
2022-10-29T23:41:12.062Z,13.35
2022-10-29T23:43:39.539Z,13.95
2022-10-29T23:46:06.888Z,11.18
2022-10-29T23:48:34.147Z,11.85
2022-10-29T23:51:01.380Z,11.02
2022-10-29T23:53:28.853Z,12.52
2022-10-29T23:55:56.128Z,14.68
2022-10-29T23:58:23.423Z,12.02
